Time;durP1;ratioP1;P1;durP2;ratioP2;P2;SDS_P1;SDS_P2;PMS_P1;PMS_P2;Temp;Humidity;BMP_temperature;BMP_pressure;BME280_temperature;BME280_humidity;BME280_pressure;Samples;Min_cycle;Max_cycle;Signal;HPM_P1;HPM_P2
2022/05/01 00:02:20;;;;;;;12.70;10.10;;;;;;;6.19;64.29;97096.01;105511;1271;1347572;-77
2022/05/01 00:04:52;;;;;;;12.60;9.00;;;;;;;6.22;64.39;97091.98;106520;1271;257901;-76
2022/05/01 00:07:23;;;;;;;12.70;9.20;;;;;;;6.26;64.11;97096.13;107204;1271;80307;-77
2022/05/01 00:09:54;;;;;;;14.80;9.70;;;;;;;6.29;64.33;97092.77;104557;1271;1831326;-77
2022/05/01 00:12:29;;;;;;;13.50;9.20;;;;;;;6.37;64.07;97094.73;107140;1271;146974;-77
2022/05/01 00:15:00;;;;;;;11.10;8.50;;;;;;;6.42;63.92;97093.34;107135;1271;84073;-79
2022/05/01 00:17:32;;;;;;;12.90;9.30;;;;;;;6.37;63.70;97095.43;105340;1271;2385321;-77
2022/05/01 00:20:07;;;;;;;11.90;9.00;;;;;;;6.34;63.90;97092.90;104478;1271;2254552;-77
2022/05/01 00:22:40;;;;;;;11.40;8.30;;;;;;;6.34;63.93;97092.58;106242;1271;206280;-77
2022/05/01 00:25:13;;;;;;;10.80;8.90;;;;;;;6.29;64.46;97095.34;103942;1271;1833451;-77
2022/05/01 00:27:45;;;;;;;13.60;9.30;;;;;;;6.28;64.44;97091.42;106309;1271;276552;-76
2022/05/01 00:30:17;;;;;;;12.10;9.60;;;;;;;6.26;64.29;97094.02;106577;1271;227308;-77
2022/05/01 00:38:27;;;;;;;12.60;8.70;;;;;;;6.28;65.45;97087.95;104809;1271;1782771;-77
2022/05/01 00:40:59;;;;;;;13.50;8.80;;;;;;;6.27;65.84;97087.63;104592;1271;2743125;-77
2022/05/01 00:43:32;;;;;;;13.70;10.10;;;;;;;6.23;66.66;97084.77;102780;1271;2606894;-77
2022/05/01 00:46:03;;;;;;;12.90;10.30;;;;;;;6.21;66.34;97084.38;105391;1271;1491518;-77
2022/05/01 00:48:35;;;;;;;14.60;10.60;;;;;;;6.25;66.39;97083.07;105724;1271;1528155;-77
2022/05/01 00:51:06;;;;;;;14.10;10.70;;;;;;;6.29;66.18;97084.17;106900;1271;138703;-77
2022/05/01 00:53:39;;;;;;;14.10;10.90;;;;;;;6.36;65.80;97085.77;106707;1271;156985;-77
2022/05/01 00:56:11;;;;;;;14.40;10.80;;;;;;;6.41;65.77;97083.05;105046;1271;2215689;-77
2022/05/01 00:58:43;;;;;;;11.60;9.70;;;;;;;6.44;65.70;97081.63;106720;1271;290392;-77
2022/05/01 01:01:16;;;;;;;11.50;8.60;;;;;;;6.50;65.45;97086.52;106943;1271;201565;-76
2022/05/01 01:03:48;;;;;;;11.00;8.40;;;;;;;6.50;66.09;97082.15;105966;1273;234677;-77
2022/05/01 01:06:20;;;;;;;12.80;8.70;;;;;;;6.49;66.57;97086.14;105922;1271;348230;-77
2022/05/01 01:08:52;;;;;;;13.10;9.80;;;;;;;6.43;66.96;97083.81;105186;1271;426234;-77
2022/05/01 01:11:24;;;;;;;15.10;10.10;;;;;;;6.48;66.56;97085.59;107104;1271;151683;-77
2022/05/01 01:13:55;;;;;;;13.70;10.10;;;;;;;6.49;66.45;97084.92;107342;1271;82104;-77
2022/05/01 01:16:27;;;;;;;14.00;10.50;;;;;;;6.45;66.49;97085.21;104913;1271;2595302;-77
2022/05/01 01:18:58;;;;;;;13.50;10.60;;;;;;;6.42;66.32;97083.70;107190;1271;83822;-77
2022/05/01 01:21:30;;;;;;;13.60;9.20;;;;;;;6.43;66.28;97082.45;107252;1271;156563;-77
2022/05/01 01:24:04;;;;;;;13.10;10.10;;;;;;;6.45;66.38;97082.90;104390;1271;1736912;-77
2022/05/01 01:26:37;;;;;;;14.40;10.60;;;;;;;6.45;66.15;97080.01;106671;1271;212231;-77
2022/05/01 01:31:56;;;;;;;10.20;7.90;;;;;;;6.41;66.78;97077.89;106653;1273;168279;-77
2022/05/01 01:34:33;;;;;;;12.60;8.60;;;;;;;6.34;67.10;97073.42;106955;1271;165714;-76
2022/05/01 01:37:06;;;;;;;12.70;9.50;;;;;;;6.21;67.71;97072.62;106685;1271;178299;-78
2022/05/01 01:39:40;;;;;;;11.40;7.90;;;;;;;6.11;68.45;97071.67;105460;1271;1522997;-78
2022/05/01 01:42:16;;;;;;;10.80;9.40;;;;;;;6.07;69.01;97070.83;106951;1271;189156;-78
2022/05/01 01:44:48;;;;;;;17.70;11.10;;;;;;;6.11;68.66;97072.05;106719;1271;256349;-76
2022/05/01 01:47:20;;;;;;;15.20;10.60;;;;;;;6.18;67.98;97074.04;107386;1271;83800;-77
2022/05/01 01:49:54;;;;;;;13.90;9.50;;;;;;;6.22;67.57;97069.91;104332;1271;1919470;-77
2022/05/01 01:52:26;;;;;;;13.50;10.10;;;;;;;6.25;67.60;97069.73;107452;1271;74168;-77
2022/05/01 01:54:57;;;;;;;14.10;10.80;;;;;;;6.26;67.53;97071.91;107248;1271;77945;-77
2022/05/01 01:57:30;;;;;;;12.40;10.50;;;;;;;6.27;67.71;97073.77;107244;1271;134795;-77
2022/05/01 02:00:01;;;;;;;13.30;9.50;;;;;;;6.27;67.60;97070.09;107190;1271;74031;-77
2022/05/01 02:02:32;;;;;;;12.40;9.30;;;;;;;6.27;67.73;97072.61;105516;1271;2234758;-77
2022/05/01 02:05:06;;;;;;;13.60;10.70;;;;;;;6.31;67.65;97072.30;106075;1271;1523843;-77
2022/05/01 02:07:38;;;;;;;14.70;10.50;;;;;;;6.40;67.43;97071.56;105917;1272;1829629;-77
2022/05/01 02:10:13;;;;;;;14.70;10.30;;;;;;;6.49;67.32;97069.18;107429;1271;76312;-77
2022/05/01 02:12:44;;;;;;;16.20;12.10;;;;;;;6.55;67.10;97066.48;106204;1271;1278192;-76
2022/05/01 02:15:17;;;;;;;13.60;10.80;;;;;;;6.62;67.00;97058.83;107294;1274;92617;-76
2022/05/01 02:17:49;;;;;;;16.80;12.00;;;;;;;6.66;66.64;97063.15;104422;1271;2073544;-76
2022/05/01 02:20:21;;;;;;;16.50;11.50;;;;;;;6.68;66.76;97061.92;102584;1271;1819426;-77
2022/05/01 02:22:54;;;;;;;16.60;12.20;;;;;;;6.75;66.60;97060.48;105383;1271;2594477;-76
2022/05/01 02:25:25;;;;;;;18.30;13.00;;;;;;;6.85;66.64;97060.73;107520;1271;32295;-76
2022/05/01 02:27:55;;;;;;;17.40;12.30;;;;;;;6.92;66.30;97055.30;107446;1271;100044;-76
2022/05/01 02:30:26;;;;;;;18.30;12.60;;;;;;;6.95;66.06;97052.90;107375;1271;80425;-77
2022/05/01 02:32:57;;;;;;;15.80;11.70;;;;;;;6.99;66.24;97054.21;107290;1271;82668;-77
2022/05/01 02:35:29;;;;;;;13.20;11.00;;;;;;;6.98;66.10;97054.79;106047;1271;1899414;-77
2022/05/01 02:38:00;;;;;;;16.60;11.30;;;;;;;7.03;66.07;97054.38;107400;1271;77534;-77
2022/05/01 02:40:31;;;;;;;15.20;11.20;;;;;;;7.05;66.02;97053.84;107275;1271;151258;-77
2022/05/01 02:43:05;;;;;;;16.80;11.40;;;;;;;7.05;65.84;97054.00;106058;1271;1834083;-77
2022/05/01 02:45:38;;;;;;;17.50;11.80;;;;;;;7.08;65.77;97052.39;106410;1271;1498066;-78
2022/05/01 02:48:10;;;;;;;14.60;11.70;;;;;;;7.12;65.42;97050.69;107599;1271;66105;-77
2022/05/01 02:50:41;;;;;;;16.50;13.10;;;;;;;7.11;65.61;97050.42;107442;1271;118844;-77
2022/05/01 02:53:11;;;;;;;15.20;12.40;;;;;;;7.09;65.47;97051.83;107605;1271;34738;-77
2022/05/01 02:55:42;;;;;;;16.80;13.20;;;;;;;7.08;65.66;97051.82;105978;1271;1815177;-76
2022/05/01 02:58:13;;;;;;;17.30;13.10;;;;;;;7.05;65.45;97050.84;107438;1272;37537;-77
2022/05/01 03:00:44;;;;;;;15.90;12.00;;;;;;;7.02;65.51;97051.55;107369;1271;97536;-75
2022/05/01 03:03:15;;;;;;;17.00;13.40;;;;;;;7.04;65.37;97050.44;107498;1271;68073;-76
2022/05/01 03:05:47;;;;;;;17.00;12.70;;;;;;;7.05;65.33;97051.67;107342;1271;96821;-76
2022/05/01 03:08:17;;;;;;;15.00;10.80;;;;;;;7.01;65.18;97055.08;107532;1271;33434;-77
2022/05/01 03:10:47;;;;;;;;;;;;;;;7.00;65.34;97055.86;107391;1271;106989;-77
2022/05/01 03:13:18;;;;;;;14.10;11.20;;;;;;;6.98;65.37;97054.88;107543;1271;29581;-76
2022/05/01 03:15:50;;;;;;;14.80;10.60;;;;;;;6.93;65.47;97052.79;107498;1271;44010;-76
2022/05/01 03:23:58;;;;;;;12.60;10.40;;;;;;;6.90;65.82;97049.14;105827;1270;2072236;-77
2022/05/01 03:26:29;;;;;;;17.70;12.10;;;;;;;6.94;65.77;97048.31;107354;1271;38220;-77
2022/05/01 03:29:00;;;;;;;14.00;11.60;;;;;;;7.00;65.52;97052.02;107305;1271;80607;-77
2022/05/01 03:31:31;;;;;;;16.30;11.40;;;;;;;7.03;65.43;97050.96;107375;1271;34160;-77
2022/05/01 03:34:04;;;;;;;17.50;12.60;;;;;;;7.04;65.39;97052.13;107332;1271;74191;-77
2022/05/01 03:36:35;;;;;;;15.10;11.60;;;;;;;7.07;65.55;97054.07;107410;1271;41257;-77
2022/05/01 03:39:08;;;;;;;17.00;13.00;;;;;;;7.10;65.33;97052.89;107310;1271;85166;-77
2022/05/01 03:41:39;;;;;;;15.10;11.70;;;;;;;7.13;65.30;97047.81;107422;1271;41280;-77
2022/05/01 03:44:11;;;;;;;15.10;11.10;;;;;;;7.18;65.35;97050.29;107389;1270;56732;-77
2022/05/01 03:46:44;;;;;;;17.70;12.60;;;;;;;7.24;65.07;97048.05;107428;1271;64919;-77
2022/05/01 03:49:15;;;;;;;14.60;11.20;;;;;;;7.28;64.93;97046.40;107425;1271;33544;-76
2022/05/01 03:51:46;;;;;;;13.50;12.10;;;;;;;7.33;64.81;97040.66;107318;1270;73369;-76
2022/05/01 03:54:17;;;;;;;14.60;10.70;;;;;;;7.42;64.43;97039.17;107369;1271;32986;-76
2022/05/01 03:56:48;;;;;;;15.30;11.20;;;;;;;7.52;64.31;97036.86;107146;1271;97894;-77
2022/05/01 03:59:19;;;;;;;16.40;11.90;;;;;;;7.61;64.00;97039.45;107313;1271;54218;-76
2022/05/01 04:01:48;;;;;;;;;;;;;;;7.72;63.77;97038.50;105650;1271;2051739;-77
2022/05/01 04:04:19;;;;;;;14.90;11.40;;;;;;;7.84;63.36;97033.17;107369;1270;75147;-76
2022/05/01 04:06:50;;;;;;;15.70;11.30;;;;;;;7.99;63.14;97036.89;107245;1271;73872;-77
2022/05/01 04:09:24;;;;;;;15.90;12.50;;;;;;;8.09;62.71;97034.66;107350;1271;43249;-76
2022/05/01 04:11:55;;;;;;;14.80;12.10;;;;;;;8.16;62.54;97035.17;107293;1271;59443;-77
2022/05/01 04:14:26;;;;;;;13.80;11.90;;;;;;;8.24;62.59;97036.10;107284;1271;57638;-77
2022/05/01 04:16:57;;;;;;;15.90;11.00;;;;;;;8.36;62.29;97037.70;107280;1271;51632;-76
2022/05/01 04:19:29;;;;;;;14.60;11.80;;;;;;;8.48;62.20;97038.64;107147;1271;117144;-76
2022/05/01 04:22:00;;;;;;;21.10;12.90;;;;;;;8.62;61.73;97035.25;107439;1271;47293;-77
2022/05/01 04:24:31;;;;;;;12.80;11.20;;;;;;;8.76;61.36;97033.96;107292;1271;60293;-77
2022/05/01 04:27:06;;;;;;;14.30;11.40;;;;;;;8.96;61.04;97039.50;107360;1271;32300;-77
2022/05/01 04:29:41;;;;;;;15.00;12.40;;;;;;;9.18;61.00;97034.05;107185;1271;89743;-77
2022/05/01 04:32:16;;;;;;;15.70;10.50;;;;;;;9.47;60.56;97040.35;107422;1271;38764;-76
2022/05/01 04:34:47;;;;;;;14.80;11.80;;;;;;;9.91;60.66;97041.94;107247;1273;108349;-76
2022/05/01 04:37:18;;;;;;;15.30;10.50;;;;;;;10.94;60.09;97039.39;107326;1271;44951;-76
2022/05/01 04:39:49;;;;;;;15.50;10.00;;;;;;;12.39;58.15;97035.23;107209;1271;88338;-76
2022/05/01 04:42:20;;;;;;;12.90;11.40;;;;;;;13.51;55.08;97034.56;107322;1271;43407;-76
2022/05/01 04:44:51;;;;;;;14.60;11.00;;;;;;;14.41;53.75;97035.95;105887;1271;1962255;-76
2022/05/01 04:47:22;;;;;;;12.90;10.50;;;;;;;14.29;51.84;97038.25;107279;1271;130285;-76
2022/05/01 04:49:53;;;;;;;14.50;10.60;;;;;;;14.54;51.24;97037.33;107098;1271;179559;-77
2022/05/01 04:52:24;;;;;;;13.90;10.50;;;;;;;15.35;49.93;97038.66;107356;1271;32296;-77
2022/05/01 04:54:56;;;;;;;12.50;9.90;;;;;;;15.54;48.79;97037.23;107141;1271;101101;-77
2022/05/01 04:57:27;;;;;;;13.20;10.50;;;;;;;15.39;47.28;97034.36;107335;1271;34888;-77
2022/05/01 05:00:00;;;;;;;13.30;9.50;;;;;;;15.06;47.69;97042.17;107306;1271;83418;-77
2022/05/01 05:02:39;;;;;;;11.40;9.50;;;;;;;16.25;47.66;97035.42;107271;1271;63093;-77
2022/05/01 05:05:12;;;;;;;14.10;8.80;;;;;;;17.41;45.35;97033.84;107459;1271;29090;-77
2022/05/01 05:07:43;;;;;;;12.50;8.90;;;;;;;18.29;44.36;97036.23;107055;1271;175114;-78
2022/05/01 05:10:15;;;;;;;11.20;9.30;;;;;;;18.87;42.42;97031.28;107446;1271;35280;-76
2022/05/01 05:12:49;;;;;;;10.00;8.40;;;;;;;18.98;41.67;97031.27;106467;1273;1149820;-77
2022/05/01 05:15:21;;;;;;;9.60;7.80;;;;;;;19.51;41.47;97034.86;107324;1271;64562;-75
2022/05/01 05:17:52;;;;;;;11.40;8.50;;;;;;;20.25;40.73;97033.16;107081;1271;126475;-77
2022/05/01 05:20:23;;;;;;;9.60;7.60;;;;;;;20.90;39.78;97034.39;107445;1271;43340;-78
2022/05/01 05:22:55;;;;;;;12.10;8.40;;;;;;;21.58;39.01;97031.33;105937;1271;2044309;-77
2022/05/01 05:25:25;;;;;;;11.10;8.30;;;;;;;21.87;36.23;97029.45;107286;1271;92033;-77
2022/05/01 05:27:56;;;;;;;9.10;7.90;;;;;;;21.65;36.16;97039.64;107307;1273;68559;-77
2022/05/01 05:30:28;;;;;;;11.00;8.60;;;;;;;20.99;35.22;97038.87;105561;1271;2107024;-77
2022/05/01 05:32:59;;;;;;;9.90;8.50;;;;;;;18.75;36.49;97045.69;107293;1271;69090;-77
2022/05/01 05:35:30;;;;;;;9.70;8.50;;;;;;;17.16;37.92;97050.38;107318;1271;44856;-77
2022/05/01 05:38:01;;;;;;;10.60;8.60;;;;;;;16.04;39.55;97052.90;107375;1271;36915;-77
2022/05/01 05:40:32;;;;;;;10.10;9.00;;;;;;;15.12;40.97;97057.06;107227;1270;65395;-77
2022/05/01 05:43:03;;;;;;;13.30;9.90;;;;;;;14.53;42.14;97059.39;107390;1270;35219;-77
2022/05/01 05:45:34;;;;;;;11.50;9.50;;;;;;;14.20;42.92;97056.89;107284;1273;68179;-77
2022/05/01 05:48:07;;;;;;;10.70;8.40;;;;;;;14.00;43.48;97059.55;107159;1271;96836;-77
2022/05/01 05:50:38;;;;;;;11.50;8.50;;;;;;;13.79;43.57;97058.94;107386;1271;32568;-77
2022/05/01 05:53:09;;;;;;;12.20;8.80;;;;;;;13.67;44.18;97058.67;107276;1271;81871;-76
2022/05/01 05:55:40;;;;;;;11.60;9.20;;;;;;;13.60;44.34;97059.54;103442;1270;5401456;-77
2022/05/01 05:58:11;;;;;;;10.90;8.90;;;;;;;13.70;44.78;97057.06;107280;1271;107354;-77
2022/05/01 06:00:42;;;;;;;10.10;8.00;;;;;;;13.79;44.67;97059.79;107504;1271;32333;-78
2022/05/01 06:03:14;;;;;;;11.50;8.90;;;;;;;13.69;45.36;97059.59;93604;1271;7345996;-77
2022/05/01 06:05:44;;;;;;;11.80;9.30;;;;;;;13.57;45.56;97065.77;107383;1273;42251;-76
2022/05/01 06:08:16;;;;;;;13.60;9.80;;;;;;;13.41;46.02;97063.09;107457;1271;34806;-77
2022/05/01 06:10:47;;;;;;;12.00;9.30;;;;;;;13.23;46.50;97065.73;107316;1271;76679;-77
2022/05/01 06:13:18;;;;;;;12.50;9.40;;;;;;;13.01;46.94;97065.40;107472;1273;34433;-77
2022/05/01 06:15:48;;;;;;;13.60;9.00;;;;;;;12.82;47.60;97065.23;107518;1271;37946;-77
2022/05/01 06:18:19;;;;;;;11.60;9.20;;;;;;;12.74;48.17;97065.95;107455;1271;67202;-77
2022/05/01 06:20:51;;;;;;;11.00;9.20;;;;;;;12.68;48.42;97068.56;106361;1270;1525680;-77
2022/05/01 06:23:21;;;;;;;13.90;9.40;;;;;;;12.62;48.49;97068.08;107425;1271;50068;-77
2022/05/01 06:25:53;;;;;;;11.20;9.00;;;;;;;12.57;48.80;97068.81;107516;1271;39891;-77
2022/05/01 06:28:23;;;;;;;11.60;9.00;;;;;;;12.53;48.73;97068.91;107521;1271;33390;-78
2022/05/01 06:30:55;;;;;;;11.30;9.20;;;;;;;12.46;48.82;97066.20;107418;1271;52099;-77
2022/05/01 06:33:26;;;;;;;12.80;10.30;;;;;;;12.39;48.89;97070.39;107319;1271;48802;-78
2022/05/01 06:35:58;;;;;;;13.50;10.20;;;;;;;12.36;49.52;97065.42;107146;1271;48401;-78
2022/05/01 06:38:28;;;;;;;13.70;9.80;;;;;;;12.33;49.90;97063.95;107279;1271;43322;-77
2022/05/01 06:41:00;;;;;;;12.30;9.60;;;;;;;12.36;50.61;97068.17;107305;1270;42663;-78
2022/05/01 06:43:31;;;;;;;13.20;9.80;;;;;;;12.43;51.01;97065.16;107314;1271;34432;-79
2022/05/01 06:46:02;;;;;;;14.90;10.00;;;;;;;12.51;50.99;97068.86;107159;1271;69652;-79
2022/05/01 06:48:33;;;;;;;12.30;9.10;;;;;;;12.58;50.90;97069.19;97488;1271;7375046;-79
2022/05/01 06:51:04;;;;;;;11.00;8.70;;;;;;;12.66;50.90;97070.02;107051;1271;80803;-79
2022/05/01 06:53:35;;;;;;;13.10;9.70;;;;;;;12.77;50.76;97071.56;107426;1271;43641;-79
2022/05/01 06:56:06;;;;;;;12.00;9.80;;;;;;;12.95;50.36;97074.21;107339;1271;39678;-79
2022/05/01 06:58:37;;;;;;;11.80;9.50;;;;;;;13.34;50.10;97070.61;107301;1271;51763;-79
2022/05/01 07:01:08;;;;;;;12.30;9.30;;;;;;;13.71;49.23;97075.02;107424;1271;34067;-78
2022/05/01 07:03:40;;;;;;;12.10;9.10;;;;;;;13.83;49.16;97074.27;107336;1270;53092;-80
2022/05/01 07:06:11;;;;;;;11.60;9.00;;;;;;;13.95;48.90;97074.05;107336;1272;39696;-79
2022/05/01 07:08:42;;;;;;;11.50;9.60;;;;;;;13.93;48.65;97075.30;107352;1271;39796;-79
2022/05/01 07:11:14;;;;;;;12.90;9.20;;;;;;;13.82;49.05;97075.36;107349;1271;35825;-79
2022/05/01 07:13:44;;;;;;;11.70;8.90;;;;;;;13.82;48.72;97078.19;107376;1271;36828;-76
2022/05/01 07:16:15;;;;;;;13.70;9.40;;;;;;;13.75;48.52;97078.37;107241;1273;42330;-78
2022/05/01 07:18:46;;;;;;;11.90;9.90;;;;;;;13.76;48.92;97077.40;107360;1271;36437;-78
2022/05/01 07:21:17;;;;;;;12.60;8.80;;;;;;;13.78;48.87;97078.66;107253;1270;45151;-78
2022/05/01 07:23:49;;;;;;;11.20;8.40;;;;;;;13.81;49.01;97078.58;107265;1271;32445;-78
2022/05/01 07:26:20;;;;;;;10.00;8.20;;;;;;;13.84;48.87;97076.29;107270;1271;38348;-78
2022/05/01 07:28:51;;;;;;;10.30;8.40;;;;;;;13.87;48.87;97079.77;107284;1271;43504;-78
2022/05/01 07:31:22;;;;;;;11.50;7.90;;;;;;;13.88;49.30;97076.71;107258;1271;32177;-78
2022/05/01 07:33:53;;;;;;;11.30;8.30;;;;;;;13.98;49.43;97076.64;107336;1271;40072;-78
2022/05/01 07:36:24;;;;;;;10.40;8.00;;;;;;;14.03;49.18;97076.02;107291;1271;46100;-78
2022/05/01 07:38:55;;;;;;;13.70;8.70;;;;;;;14.07;49.08;97077.04;107198;1271;32438;-78
2022/05/01 07:41:26;;;;;;;11.50;8.50;;;;;;;14.17;48.91;97077.45;107248;1271;47770;-78
2022/05/01 07:43:57;;;;;;;10.10;8.40;;;;;;;14.28;48.95;97082.11;107324;1271;32260;-79
2022/05/01 07:46:28;;;;;;;11.10;8.40;;;;;;;14.40;48.97;97082.77;107295;1271;35435;-79
2022/05/01 07:48:59;;;;;;;13.00;9.40;;;;;;;14.38;48.33;97081.27;107301;1271;36168;-80
2022/05/01 07:51:30;;;;;;;10.90;8.90;;;;;;;14.31;48.59;97082.50;107150;1271;59298;-82
2022/05/01 07:54:01;;;;;;;11.80;9.00;;;;;;;14.34;48.51;97084.37;107145;1271;51212;-79
2022/05/01 07:56:32;;;;;;;10.10;8.40;;;;;;;14.50;48.88;97081.10;107147;1272;79667;-79
2022/05/01 07:59:03;;;;;;;11.50;8.90;;;;;;;15.01;48.89;97081.36;107179;1270;76388;-79
2022/05/01 08:01:34;;;;;;;10.80;8.90;;;;;;;15.61;48.73;97074.45;107167;1270;52390;-79
2022/05/01 08:07:04;;;;;;;10.30;8.60;;;;;;;16.48;47.34;97076.76;107029;1271;75555;-78
2022/05/01 08:09:35;;;;;;;10.90;8.80;;;;;;;16.24;46.20;97075.70;107408;1271;98556;-78
2022/05/01 08:12:08;;;;;;;14.40;10.40;;;;;;;16.08;47.20;97072.86;107510;1270;40694;-81
2022/05/01 08:14:41;;;;;;;14.50;10.50;;;;;;;15.84;48.13;97071.67;108795;1270;35193;-79
2022/05/01 08:17:12;;;;;;;14.60;10.80;;;;;;;15.84;49.19;97069.66;107571;1271;38126;-79
2022/05/01 08:22:31;;;;;;;12.90;11.00;;;;;;;16.60;49.38;97067.64;107357;1271;46095;-80
2022/05/01 08:25:02;;;;;;;13.10;10.90;;;;;;;17.07;49.18;97067.14;107288;1271;48690;-80
2022/05/01 08:27:33;;;;;;;13.80;10.80;;;;;;;17.36;48.23;97063.76;107356;1271;33760;-81
2022/05/01 08:30:04;;;;;;;13.50;11.30;;;;;;;17.19;47.59;97065.27;107284;1271;72040;-80
2022/05/01 08:32:35;;;;;;;13.60;11.40;;;;;;;17.28;48.23;97064.06;107444;1270;39584;-81
2022/05/01 08:35:07;;;;;;;12.10;10.70;;;;;;;18.09;48.14;97059.60;107377;1271;35423;-80
2022/05/01 08:37:39;;;;;;;12.90;10.50;;;;;;;18.71;46.46;97064.25;107349;1271;43752;-80
2022/05/01 08:40:14;;;;;;;13.50;10.80;;;;;;;18.98;45.43;97058.09;107370;1271;35460;-81
2022/05/01 08:42:46;;;;;;;12.10;10.80;;;;;;;19.29;45.35;97057.10;107456;1271;32392;-81
2022/05/01 08:45:24;;;;;;;13.20;10.20;;;;;;;20.16;45.42;97056.09;107382;1271;51574;-80
2022/05/01 08:48:01;;;;;;;11.50;9.70;;;;;;;21.94;44.13;97054.97;107485;1271;34468;-81
2022/05/01 08:50:35;;;;;;;11.50;9.60;;;;;;;24.45;41.86;97050.50;107478;1271;40913;-81
2022/05/01 08:53:08;;;;;;;12.20;9.90;;;;;;;26.27;40.17;97046.75;107441;1271;44743;-81
2022/05/01 08:55:41;;;;;;;12.10;9.30;;;;;;;28.10;38.27;97051.14;107457;1271;37655;-82
2022/05/01 08:58:14;;;;;;;10.00;9.00;;;;;;;29.33;36.06;97049.90;107440;1273;42080;-81
2022/05/01 09:00:45;;;;;;;10.60;9.50;;;;;;;30.09;33.66;97045.23;107342;1271;47310;-76
2022/05/01 09:03:16;;;;;;;10.80;9.10;;;;;;;30.33;33.02;97047.42;107366;1273;37483;-79
2022/05/01 09:05:47;;;;;;;10.60;8.50;;;;;;;30.44;29.75;97049.02;107345;1271;39421;-80
2022/05/01 09:08:18;;;;;;;11.90;9.20;;;;;;;29.58;28.84;97045.60;107359;1271;32368;-81
2022/05/01 09:10:49;;;;;;;11.70;8.20;;;;;;;29.00;29.86;97045.20;107386;1271;47116;-80
2022/05/01 09:13:25;;;;;;;11.50;9.30;;;;;;;28.36;28.62;97047.71;107380;1271;33952;-79
2022/05/01 09:16:12;;;;;;;10.10;8.90;;;;;;;27.65;29.15;97047.77;107416;1271;47945;-80
2022/05/01 09:18:47;;;;;;;10.10;8.30;;;;;;;26.53;28.83;97042.65;107446;1271;33832;-81
2022/05/01 09:21:18;;;;;;;10.00;8.90;;;;;;;25.34;31.14;97039.94;107414;1271;35423;-80
2022/05/01 09:23:49;;;;;;;12.60;9.40;;;;;;;25.32;31.52;97039.52;107320;1271;49990;-78
2022/05/01 09:26:22;;;;;;;12.10;8.60;;;;;;;24.75;32.08;97036.80;107340;1271;40629;-76
2022/05/01 09:28:54;;;;;;;11.40;8.50;;;;;;;23.57;32.73;97036.33;107327;1270;55888;-78
2022/05/01 09:31:47;;;;;;;9.00;7.70;;;;;;;22.26;33.58;97031.09;107271;1271;79159;-80
2022/05/01 09:34:23;;;;;;;9.60;8.10;;;;;;;21.27;33.76;97028.65;107408;1271;44391;-78
2022/05/01 09:36:54;;;;;;;9.30;7.40;;;;;;;20.05;34.61;97026.61;107295;1271;110469;-77
2022/05/01 09:39:27;;;;;;;10.30;7.50;;;;;;;19.55;36.63;97025.95;107344;1271;66814;-80
2022/05/01 09:42:13;;;;;;;10.40;8.00;;;;;;;19.62;36.95;97026.70;107356;1271;88626;-77
2022/05/01 09:44:44;;;;;;;11.00;7.60;;;;;;;19.47;37.41;97023.78;107471;1271;71764;-77
2022/05/01 09:47:34;;;;;;;9.60;8.00;;;;;;;19.70;38.10;97022.31;107411;1271;65199;-77
2022/05/01 09:50:07;;;;;;;8.90;7.20;;;;;;;19.96;38.17;97010.21;107412;1270;35297;-77
2022/05/01 09:52:56;;;;;;;12.30;7.40;;;;;;;20.20;37.86;97011.16;107440;1271;27242;-76
2022/05/01 09:55:28;;;;;;;10.80;7.80;;;;;;;20.73;37.64;97014.88;107352;1271;40226;-79
2022/05/01 09:58:09;;;;;;;8.80;6.30;;;;;;;20.95;36.45;97007.81;107419;1270;37881;-77
2022/05/01 10:00:45;;;;;;;9.50;6.60;;;;;;;20.91;35.30;97011.70;107434;1271;76787;-78
2022/05/01 10:03:29;;;;;;;8.20;5.90;;;;;;;20.79;34.29;97011.08;107500;1271;69270;-76
2022/05/01 10:06:00;;;;;;;7.50;6.20;;;;;;;20.06;34.11;97008.05;107473;1273;62992;-75
2022/05/01 10:08:32;;;;;;;8.70;7.00;;;;;;;19.62;35.60;97013.72;107546;1273;38019;-76
2022/05/01 10:11:04;;;;;;;9.90;6.40;;;;;;;19.65;36.39;97010.42;107468;1273;32345;-75
2022/05/01 10:13:37;;;;;;;9.10;6.50;;;;;;;19.89;35.33;97006.19;107293;1273;40011;-76
2022/05/01 10:16:11;;;;;;;9.40;6.60;;;;;;;19.92;36.91;97003.98;107310;1273;33116;-77
2022/05/01 10:18:43;;;;;;;8.80;5.90;;;;;;;20.07;36.75;97000.46;107457;1272;41794;-75
2022/05/01 10:21:14;;;;;;;8.70;6.00;;;;;;;20.04;35.97;96993.81;107420;1273;42176;-75
2022/05/01 10:23:46;;;;;;;9.70;6.70;;;;;;;19.66;35.91;96993.19;107402;1273;28364;-75
2022/05/01 10:26:25;;;;;;;10.60;6.10;;;;;;;19.22;35.52;96993.54;107365;1271;31294;-75
2022/05/01 10:29:24;;;;;;;7.50;6.20;;;;;;;18.69;35.61;96992.45;107399;1272;32448;-75
2022/05/01 10:32:25;;;;;;;8.60;6.30;;;;;;;18.37;36.36;96993.12;107320;1272;39630;-75
2022/05/01 10:35:14;;;;;;;8.20;6.60;;;;;;;18.21;36.61;96994.12;107366;1273;39667;-76
2022/05/01 10:38:16;;;;;;;8.90;6.90;;;;;;;18.19;37.15;96993.41;107464;1273;32512;-76
2022/05/01 10:40:50;;;;;;;9.30;7.30;;;;;;;18.18;37.16;96996.15;107366;1272;31198;-75
2022/05/01 10:43:33;;;;;;;10.80;7.00;;;;;;;18.18;37.27;96995.73;107361;1273;36680;-77
2022/05/01 10:46:05;;;;;;;9.70;7.10;;;;;;;18.22;37.84;96993.46;107341;1272;49749;-77
2022/05/01 10:48:38;;;;;;;8.60;7.10;;;;;;;18.41;38.59;96985.98;107349;1272;42280;-77
2022/05/01 10:51:47;;;;;;;9.50;7.00;;;;;;;18.46;37.98;96985.98;107387;1271;28837;-76
2022/05/01 10:54:38;;;;;;;9.70;7.40;;;;;;;18.38;38.51;96986.92;107391;1271;32205;-75
2022/05/01 10:57:12;;;;;;;10.00;7.10;;;;;;;18.44;38.80;96986.35;107351;1272;38218;-75
2022/05/01 10:59:46;;;;;;;9.40;8.10;;;;;;;18.54;39.11;96981.55;107454;1271;41000;-76
2022/05/01 11:02:39;;;;;;;9.30;7.00;;;;;;;18.78;39.42;96976.66;107421;1271;34027;-75
2022/05/01 11:05:31;;;;;;;11.30;7.40;;;;;;;18.88;38.95;96977.52;107379;1272;39680;-75
2022/05/01 11:08:04;;;;;;;9.20;7.10;;;;;;;18.95;39.03;96976.51;107429;1272;34205;-75
2022/05/01 11:10:37;;;;;;;8.00;6.00;;;;;;;19.09;39.32;96975.49;107375;1271;33291;-74
2022/05/01 11:13:13;;;;;;;9.50;6.50;;;;;;;19.14;38.68;96974.64;107241;1271;41087;-75
2022/05/01 11:15:49;;;;;;;8.80;6.20;;;;;;;19.09;38.05;96979.29;107406;1271;35820;-75
2022/05/01 11:18:30;;;;;;;10.10;6.50;;;;;;;19.06;38.43;96979.18;107361;1270;32929;-75
2022/05/01 11:21:32;;;;;;;9.80;7.50;;;;;;;18.86;37.88;96976.67;107366;1271;34971;-78
2022/05/01 11:24:05;;;;;;;11.00;7.40;;;;;;;18.60;38.46;96973.52;107411;1271;34083;-78
2022/05/01 11:26:36;;;;;;;10.90;7.70;;;;;;;18.63;38.85;96971.83;107402;1271;33449;-76
2022/05/01 11:29:14;;;;;;;11.00;7.70;;;;;;;18.45;38.42;96970.70;107366;1271;40581;-77
2022/05/01 11:31:51;;;;;;;8.70;7.10;;;;;;;18.35;38.74;96970.01;107286;1273;32530;-75
2022/05/01 11:34:54;;;;;;;11.60;8.00;;;;;;;18.41;38.97;96973.02;107409;1271;29723;-74
2022/05/01 11:37:26;;;;;;;11.20;7.50;;;;;;;18.52;39.25;96972.02;107292;1271;30830;-75
2022/05/01 11:40:21;;;;;;;8.30;6.70;;;;;;;18.52;38.04;96973.72;107329;1270;40780;-75
2022/05/01 11:42:53;;;;;;;9.50;6.70;;;;;;;18.50;37.80;96971.65;107390;1271;31324;-76
2022/05/01 11:45:32;;;;;;;12.00;6.80;;;;;;;18.50;37.82;96970.20;107351;1271;34557;-76
2022/05/01 11:48:10;;;;;;;9.20;7.30;;;;;;;18.67;37.92;96965.71;107290;1271;45174;-77
2022/05/01 11:50:42;;;;;;;9.00;6.40;;;;;;;18.88;38.00;96962.73;107326;1271;31006;-77
2022/05/01 11:53:22;;;;;;;8.70;6.40;;;;;;;19.16;38.08;96960.12;107424;1271;30961;-76
2022/05/01 12:04:37;;;;;;;10.00;6.70;;;;;;;18.77;36.14;96952.66;107421;1273;28559;-75
2022/05/01 12:07:11;;;;;;;9.50;6.20;;;;;;;18.63;36.10;96949.03;107315;1271;40562;-76
2022/05/01 12:09:44;;;;;;;8.50;7.20;;;;;;;18.60;35.98;96955.58;107401;1273;32722;-80
2022/05/01 12:12:19;;;;;;;8.90;6.30;;;;;;;18.34;35.95;96953.55;107263;1271;38830;-74
2022/05/01 12:14:51;;;;;;;9.50;6.30;;;;;;;18.17;36.08;96952.02;107314;1273;35700;-76